Time;durP1;ratioP1;P1;durP2;ratioP2;P2;SDS_P1;SDS_P2;PMS_P1;PMS_P2;Temp;Humidity;BMP_temperature;BMP_pressure;BME280_temperature;BME280_humidity;BME280_pressure;Samples;Min_cycle;Max_cycle;Signal;HPM_P1;HPM_P2
2023/06/23 00:01:55;;;;;;;5.57;4.85;;;17.50;99.90;;;;;;5008771;28;20627;-89
2023/06/23 00:04:22;;;;;;;5.20;4.53;;;17.50;99.90;;;;;;4999171;28;20757;-87
2023/06/23 00:06:49;;;;;;;6.13;5.05;;;17.50;99.90;;;;;;4987349;28;20614;-88
2023/06/23 00:09:17;;;;;;;8.05;5.25;;;17.40;99.90;;;;;;4999133;28;20213;-87
2023/06/23 00:11:45;;;;;;;5.63;4.72;;;17.30;99.90;;;;;;5000300;28;21127;-89
2023/06/23 00:14:12;;;;;;;6.13;4.57;;;17.30;99.90;;;;;;5005341;28;20202;-88
2023/06/23 00:16:39;;;;;;;9.00;4.78;;;17.40;99.90;;;;;;5009336;28;20939;-89
2023/06/23 00:19:07;;;;;;;6.32;4.75;;;17.40;99.90;;;;;;4998934;28;20225;-87
2023/06/23 00:21:34;;;;;;;7.10;5.25;;;17.30;99.90;;;;;;4979968;28;20506;-87
2023/06/23 00:24:01;;;;;;;6.72;4.65;;;17.40;99.90;;;;;;4992820;28;20228;-87
2023/06/23 00:26:28;;;;;;;8.00;5.20;;;17.40;99.90;;;;;;5001256;28;20854;-86
2023/06/23 00:28:55;;;;;;;7.78;4.75;;;17.40;99.90;;;;;;4998325;28;20212;-87
2023/06/23 00:31:22;;;;;;;4.90;4.40;;;17.50;99.90;;;;;;5009065;28;20576;-88
2023/06/23 00:33:48;;;;;;;6.13;4.88;;;17.40;99.90;;;;;;5007856;28;20202;-89
2023/06/23 00:36:17;;;;;;;6.50;4.72;;;17.40;99.90;;;;;;4982953;28;20233;-86
2023/06/23 00:38:45;;;;;;;6.18;4.80;;;;;;;;;;4989866;28;20776;-87
2023/06/23 00:41:12;;;;;;;6.03;4.43;;;17.40;99.90;;;;;;5007248;28;20612;-89
2023/06/23 00:43:39;;;;;;;5.07;4.50;;;17.40;99.90;;;;;;4997657;28;20502;-88
2023/06/23 00:46:15;;;;;;;5.05;4.30;;;17.30;99.90;;;;;;5008604;28;20212;-87
2023/06/23 00:48:42;;;;;;;4.82;3.80;;;17.40;99.90;;;;;;5009905;28;20200;-87
2023/06/23 00:51:10;;;;;;;6.85;4.43;;;17.40;99.90;;;;;;4989863;28;20214;-86
2023/06/23 00:53:38;;;;;;;4.57;4.18;;;17.20;99.90;;;;;;4991934;28;20287;-89
2023/06/23 00:56:06;;;;;;;7.38;4.00;;;17.40;99.90;;;;;;4998199;28;20203;-87
2023/06/23 00:58:36;;;;;;;5.93;4.20;;;17.40;99.90;;;;;;4996800;28;20870;-88
2023/06/23 01:01:03;;;;;;;4.82;4.20;;;;;;;;;;5009603;28;20206;-86
2023/06/23 01:03:30;;;;;;;5.43;4.25;;;17.40;99.90;;;;;;5003286;28;20226;-88
2023/06/23 01:06:01;;;;;;;5.03;4.25;;;17.30;99.90;;;;;;5004367;28;20198;-87
2023/06/23 01:08:34;;;;;;;4.75;3.78;;;17.40;99.90;;;;;;4974910;28;20349;-87
2023/06/23 01:11:06;;;;;;;6.32;4.95;;;17.40;99.90;;;;;;5001151;28;20217;-86
2023/06/23 01:13:37;;;;;;;6.68;4.45;;;17.30;99.90;;;;;;4996754;28;20725;-88
2023/06/23 01:16:09;;;;;;;5.18;4.28;;;17.40;99.90;;;;;;5006800;28;20210;-88
2023/06/23 01:18:46;;;;;;;5.40;3.90;;;17.50;99.90;;;;;;5007002;28;20214;-87
2023/06/23 01:21:18;;;;;;;4.00;3.60;;;17.40;99.90;;;;;;5006885;28;20389;-87
2023/06/23 01:24:11;;;;;;;4.20;3.30;;;17.40;99.90;;;;;;4987619;28;20335;-87
2023/06/23 01:26:50;;;;;;;4.07;3.22;;;17.40;99.90;;;;;;4999636;28;20642;-88
2023/06/23 01:29:25;;;;;;;5.68;3.65;;;17.40;99.90;;;;;;4998859;28;20202;-88
2023/06/23 01:31:57;;;;;;;3.92;3.40;;;17.40;99.90;;;;;;5006749;28;20657;-89
2023/06/23 01:34:32;;;;;;;4.10;3.42;;;17.70;99.90;;;;;;5006640;28;20206;-89
2023/06/23 01:37:04;;;;;;;6.15;4.03;;;17.60;99.90;;;;;;5009789;28;20238;-87
2023/06/23 01:39:35;;;;;;;5.82;4.07;;;17.40;99.90;;;;;;4983352;28;20885;-89
2023/06/23 01:42:07;;;;;;;7.13;3.97;;;17.50;99.90;;;;;;5014518;28;20726;-89
2023/06/23 01:44:38;;;;;;;4.88;3.90;;;17.50;99.90;;;;;;4991991;28;20962;-88
2023/06/23 01:47:15;;;;;;;4.20;3.35;;;17.50;99.90;;;;;;5009788;28;20428;-87
2023/06/23 01:49:43;;;;;;;4.15;3.75;;;18.40;99.90;;;;;;5007703;28;20198;-88
2023/06/23 01:52:12;;;;;;;7.28;4.05;;;17.50;99.90;;;;;;5007748;28;20210;-87
2023/06/23 01:54:41;;;;;;;5.35;4.10;;;17.50;99.90;;;;;;4997257;28;20234;-87
2023/06/23 01:57:09;;;;;;;6.30;3.75;;;17.40;99.90;;;;;;4987078;28;20202;-87
2023/06/23 01:59:39;;;;;;;6.03;4.30;;;17.50;99.90;;;;;;4993921;28;20431;-87
2023/06/23 02:02:07;;;;;;;7.38;4.45;;;17.40;99.90;;;;;;5003558;28;20229;-89
2023/06/23 02:04:36;;;;;;;6.03;4.10;;;17.40;99.90;;;;;;5006400;28;20614;-89
2023/06/23 02:07:04;;;;;;;7.68;5.15;;;17.50;99.90;;;;;;5011835;28;20654;-87
2023/06/23 02:09:32;;;;;;;6.07;4.63;;;17.40;99.90;;;;;;4996545;28;20536;-89
2023/06/23 02:12:03;;;;;;;5.60;4.60;;;17.40;99.90;;;;;;4987527;28;20246;-87
2023/06/23 02:14:31;;;;;;;6.55;4.30;;;17.40;99.90;;;;;;5000937;28;20296;-90
2023/06/23 02:17:00;;;;;;;6.88;4.68;;;17.30;99.90;;;;;;4996995;28;21725;-89
2023/06/23 02:19:28;;;;;;;5.47;4.45;;;17.30;99.90;;;;;;5004580;28;20974;-89
2023/06/23 02:21:57;;;;;;;7.38;4.72;;;17.30;99.90;;;;;;5008142;28;20779;-87
2023/06/23 02:24:26;;;;;;;5.72;4.30;;;17.30;99.90;;;;;;5003364;28;20815;-87
2023/06/23 02:26:55;;;;;;;6.05;4.07;;;17.30;99.90;;;;;;4975115;28;21266;-87
2023/06/23 02:29:23;;;;;;;6.38;4.32;;;17.30;99.90;;;;;;4994326;28;20297;-89
2023/06/23 02:31:51;;;;;;;6.57;4.43;;;17.30;99.90;;;;;;4995572;28;20255;-87
2023/06/23 02:34:19;;;;;;;5.60;4.75;;;17.40;99.90;;;;;;5004246;28;20759;-88
2023/06/23 02:36:49;;;;;;;7.35;4.90;;;17.40;99.90;;;;;;5006627;28;21295;-87
2023/06/23 02:39:21;;;;;;;7.97;4.25;;;17.60;99.90;;;;;;5003776;28;20651;-87
2023/06/23 02:41:52;;;;;;;7.82;4.72;;;17.50;99.90;;;;;;4976687;28;20217;-88
2023/06/23 02:44:24;;;;;;;6.68;4.93;;;17.60;99.90;;;;;;4998655;28;21124;-87
2023/06/23 02:46:56;;;;;;;6.50;5.35;;;17.70;99.90;;;;;;4996971;28;20206;-89
2023/06/23 02:49:31;;;;;;;7.22;4.32;;;17.80;99.90;;;;;;4990957;28;20194;-88
2023/06/23 02:52:00;;;;;;;5.53;4.78;;;18.30;99.90;;;;;;5006034;28;20213;-87
2023/06/23 02:54:32;;;;;;;7.47;5.82;;;17.80;99.90;;;;;;4993754;28;21321;-89
2023/06/23 02:57:00;;;;;;;10.13;5.15;;;17.80;99.90;;;;;;4998210;28;20212;-88
2023/06/23 02:59:28;;;;;;;7.03;5.22;;;17.90;99.90;;;;;;4972894;28;21317;-89
2023/06/23 03:01:59;;;;;;;10.10;5.22;;;17.90;99.90;;;;;;4995540;28;20457;-88
2023/06/23 03:04:27;;;;;;;6.70;5.53;;;18.00;99.90;;;;;;5000368;28;20375;-88
2023/06/23 03:06:54;;;;;;;6.95;5.85;;;18.00;99.90;;;;;;5001532;28;20630;-87
2023/06/23 03:09:21;;;;;;;10.32;6.18;;;18.00;99.90;;;;;;4992876;28;20230;-86
2023/06/23 03:11:48;;;;;;;8.50;5.75;;;17.90;99.90;;;;;;4994027;28;20698;-86
2023/06/23 03:14:15;;;;;;;8.52;6.47;;;18.10;99.90;;;;;;4984890;28;20959;-85
2023/06/23 03:16:46;;;;;;;7.72;5.68;;;18.10;99.90;;;;;;4996968;28;20206;-88
2023/06/23 03:19:20;;;;;;;10.93;5.68;;;18.10;99.90;;;;;;4991679;28;20237;-88
2023/06/23 03:21:55;;;;;;;7.13;6.05;;;18.10;99.90;;;;;;5003268;28;20793;-87
2023/06/23 03:24:23;;;;;;;9.13;5.90;;;18.20;99.90;;;;;;5000628;28;20321;-89
2023/06/23 03:26:57;;;;;;;7.90;5.95;;;18.20;99.90;;;;;;4991869;28;20300;-88
2023/06/23 03:29:26;;;;;;;9.20;7.13;;;18.20;99.90;;;;;;4972090;28;20927;-89
2023/06/23 03:31:57;;;;;;;9.25;6.50;;;18.20;99.90;;;;;;4988722;28;20352;-88
2023/06/23 03:34:26;;;;;;;8.93;6.00;;;18.10;99.90;;;;;;4993726;28;20332;-88
2023/06/23 03:36:57;;;;;;;10.13;6.75;;;18.20;99.90;;;;;;5001453;28;20772;-87
2023/06/23 03:39:29;;;;;;;8.00;6.03;;;18.20;99.90;;;;;;5005772;28;20975;-87
2023/06/23 03:41:57;;;;;;;8.32;6.28;;;18.20;99.90;;;;;;4999870;28;20223;-88
2023/06/23 03:44:29;;;;;;;10.45;6.25;;;17.80;99.90;;;;;;4977821;28;20617;-87
2023/06/23 03:47:00;;;;;;;6.10;5.50;;;18.30;99.90;;;;;;4993966;28;20725;-87
2023/06/23 03:49:31;;;;;;;6.07;5.15;;;18.20;99.90;;;;;;4992163;28;20428;-89
2023/06/23 03:52:02;;;;;;;6.82;5.53;;;18.10;99.90;;;;;;5002964;28;20229;-87
2023/06/23 03:54:32;;;;;;;6.22;4.97;;;18.20;99.90;;;;;;4998414;28;20235;-89
2023/06/23 03:57:03;;;;;;;7.28;4.70;;;18.20;99.90;;;;;;4999194;28;20317;-87
2023/06/23 03:59:31;;;;;;;7.65;4.65;;;17.80;99.90;;;;;;4976722;28;20341;-89
2023/06/23 04:01:59;;;;;;;6.03;4.55;;;18.10;99.90;;;;;;5008092;28;20653;-86
2023/06/23 04:04:28;;;;;;;6.00;4.22;;;18.10;99.90;;;;;;4992536;28;20526;-88
2023/06/23 04:06:56;;;;;;;4.80;4.22;;;18.00;99.90;;;;;;5019618;28;20440;-88
2023/06/23 04:09:27;;;;;;;5.43;3.80;;;18.00;99.90;;;;;;5007864;28;20994;-87
2023/06/23 04:11:54;;;;;;;7.80;3.97;;;17.90;99.90;;;;;;5001302;28;20296;-89
2023/06/23 04:14:23;;;;;;;5.43;3.90;;;17.90;99.90;;;;;;4998036;28;20321;-89
2023/06/23 04:16:52;;;;;;;6.53;4.25;;;17.90;99.90;;;;;;4986246;28;20369;-87
2023/06/23 04:19:22;;;;;;;5.15;3.97;;;17.80;99.90;;;;;;4988499;28;20226;-87
2023/06/23 04:21:50;;;;;;;6.20;4.13;;;17.80;99.90;;;;;;4995248;28;20778;-89
2023/06/23 04:24:19;;;;;;;4.90;3.90;;;17.70;99.90;;;;;;5005106;28;20435;-89
2023/06/23 04:26:50;;;;;;;5.97;4.78;;;17.80;99.90;;;;;;5006813;28;20431;-87
2023/06/23 04:29:20;;;;;;;8.10;4.50;;;17.70;99.90;;;;;;4989320;28;20250;-87
2023/06/23 04:31:50;;;;;;;5.22;4.38;;;17.80;99.90;;;;;;4988452;28;20309;-88
2023/06/23 04:34:17;;;;;;;12.15;5.18;;;17.80;99.90;;;;;;4990918;28;20292;-87
2023/06/23 04:36:48;;;;;;;6.30;4.82;;;17.90;99.90;;;;;;4989376;28;20733;-88
2023/06/23 04:39:27;;;;;;;6.18;5.55;;;18.00;99.90;;;;;;4987358;28;20608;-87
2023/06/23 04:42:00;;;;;;;7.53;4.88;;;17.90;99.90;;;;;;5000873;28;21042;-86
2023/06/23 04:44:29;;;;;;;8.80;4.70;;;17.90;99.90;;;;;;4982289;28;20353;-89
2023/06/23 04:47:01;;;;;;;7.50;5.40;;;17.90;99.90;;;;;;4977054;28;21258;-88
2023/06/23 04:49:30;;;;;;;7.97;5.40;;;18.00;99.90;;;;;;5001287;28;20263;-90
2023/06/23 04:52:00;;;;;;;8.18;5.20;;;18.00;99.90;;;;;;4986896;28;20209;-88
2023/06/23 04:54:38;;;;;;;8.02;5.05;;;17.90;99.90;;;;;;5004870;28;20281;-87
2023/06/23 04:57:10;;;;;;;7.07;5.15;;;18.30;99.90;;;;;;5003881;28;20745;-86
2023/06/23 04:59:41;;;;;;;6.90;5.47;;;18.00;99.90;;;;;;4989926;28;20253;-87
2023/06/23 05:02:11;;;;;;;6.45;4.93;;;17.90;99.90;;;;;;4997979;28;20304;-87
2023/06/23 05:04:42;;;;;;;7.00;5.45;;;18.00;99.90;;;;;;4977061;28;20407;-87
2023/06/23 05:07:13;;;;;;;8.38;5.43;;;17.90;99.90;;;;;;4983144;28;20206;-88
2023/06/23 05:09:43;;;;;;;5.65;5.05;;;18.00;99.90;;;;;;4999310;28;20270;-87
2023/06/23 05:12:13;;;;;;;6.03;5.40;;;18.00;99.90;;;;;;5003496;28;20208;-87
2023/06/23 05:14:41;;;;;;;8.65;5.57;;;18.00;99.90;;;;;;4990428;28;20313;-86
2023/06/23 05:17:11;;;;;;;6.88;5.53;;;18.00;99.90;;;;;;5004898;28;20802;-87
2023/06/23 05:19:39;;;;;;;9.10;5.88;;;18.00;99.90;;;;;;4980141;28;20218;-87
2023/06/23 05:22:10;;;;;;;7.38;5.47;;;18.00;99.90;;;;;;4993130;28;20396;-86
2023/06/23 05:24:40;;;;;;;8.73;5.60;;;18.00;99.90;;;;;;5009254;28;20206;-86
2023/06/23 05:27:08;;;;;;;9.80;6.22;;;18.30;99.90;;;;;;5007670;28;20258;-85
2023/06/23 05:29:41;;;;;;;8.10;5.68;;;18.00;99.90;;;;;;5006978;28;20760;-84
2023/06/23 05:32:12;;;;;;;9.00;5.50;;;18.00;99.90;;;;;;4997474;28;20570;-88
2023/06/23 05:34:41;;;;;;;5.88;5.28;;;18.10;99.90;;;;;;4997770;28;20676;-90
2023/06/23 05:37:10;;;;;;;7.72;5.43;;;18.10;99.90;;;;;;4995565;28;20234;-88
2023/06/23 05:39:39;;;;;;;6.10;5.50;;;18.10;99.90;;;;;;5015739;28;20233;-91
2023/06/23 05:42:07;;;;;;;10.10;6.03;;;18.10;99.90;;;;;;5013181;28;20886;-89
2023/06/23 05:44:34;;;;;;;8.10;5.68;;;18.20;99.90;;;;;;5019474;28;20765;-91
2023/06/23 05:47:04;;;;;;;8.98;5.78;;;18.20;99.90;;;;;;5003053;28;20275;-90
2023/06/23 05:49:39;;;;;;;10.80;5.53;;;19.30;99.90;;;;;;5022359;28;20709;-90
2023/06/23 05:52:08;;;;;;;6.60;5.15;;;18.80;99.90;;;;;;4992912;28;20466;-90
2023/06/23 05:54:40;;;;;;;8.70;5.15;;;18.20;99.90;;;;;;5022100;28;20206;-91
2023/06/23 05:57:14;;;;;;;5.72;4.57;;;18.20;99.90;;;;;;5008234;28;21163;-90
2023/06/23 05:59:46;;;;;;;9.05;5.25;;;18.20;99.90;;;;;;5014821;28;20206;-94
2023/06/23 06:02:20;;;;;;;5.35;4.65;;;18.10;99.90;;;;;;5011925;28;20221;-88
2023/06/23 06:04:55;;;;;;;8.13;4.80;;;18.00;99.90;;;;;;5016867;28;20264;-90
2023/06/23 06:07:23;;;;;;;7.35;5.18;;;18.00;99.90;;;;;;4989222;28;20313;-89
2023/06/23 06:09:52;;;;;;;6.75;4.85;;;17.90;99.90;;;;;;5018872;28;20272;-91
2023/06/23 06:12:19;;;;;;;6.90;5.03;;;17.90;99.90;;;;;;5013483;28;20283;-91
2023/06/23 06:14:48;;;;;;;6.18;4.70;;;17.90;99.90;;;;;;5021374;28;20268;-89
2023/06/23 06:17:18;;;;;;;8.43;4.82;;;17.90;99.90;;;;;;5003833;28;20214;-91
2023/06/23 06:19:46;;;;;;;5.30;4.78;;;17.90;99.90;;;;;;5019732;28;20242;-92
2023/06/23 06:22:15;;;;;;;7.13;4.45;;;17.90;99.90;;;;;;4992424;28;22036;-93
2023/06/23 06:24:44;;;;;;;6.05;5.03;;;17.80;99.90;;;;;;5023579;28;20198;-91
2023/06/23 06:27:14;;;;;;;6.45;5.85;;;17.80;99.90;;;;;;5007944;28;20265;-86
2023/06/23 06:29:43;;;;;;;6.70;4.78;;;17.80;99.90;;;;;;5010426;28;20296;-89
2023/06/23 06:32:11;;;;;;;7.90;4.88;;;17.80;99.90;;;;;;4997730;28;20337;-86
2023/06/23 06:34:42;;;;;;;7.03;5.00;;;17.80;99.90;;;;;;5020027;28;20195;-85
2023/06/23 06:37:10;;;;;;;7.07;4.75;;;17.80;99.90;;;;;;4992345;28;20232;-85
2023/06/23 06:39:38;;;;;;;8.55;5.00;;;17.90;99.90;;;;;;5021557;28;20217;-88
2023/06/23 06:42:07;;;;;;;9.43;4.80;;;17.80;99.90;;;;;;5017660;28;20539;-88
2023/06/23 06:44:33;;;;;;;9.35;5.13;;;17.90;99.90;;;;;;5021061;28;20629;-87
2023/06/23 06:47:03;;;;;;;6.82;4.97;;;18.00;99.90;;;;;;5012155;28;20671;-86
2023/06/23 06:49:31;;;;;;;6.90;4.72;;;18.00;99.90;;;;;;5012176;28;20588;-89
2023/06/23 06:52:01;;;;;;;6.50;4.72;;;18.00;99.90;;;;;;4992556;28;20209;-87
2023/06/23 06:54:28;;;;;;;6.78;5.15;;;18.10;99.90;;;;;;5012883;28;20217;-88
2023/06/23 06:56:56;;;;;;;7.55;5.38;;;18.10;99.90;;;;;;5019473;28;20198;-86
2023/06/23 06:59:24;;;;;;;8.57;5.63;;;;;;;;;;5008315;28;21024;-86
2023/06/23 07:01:51;;;;;;;9.25;6.15;;;18.20;99.90;;;;;;5017774;28;20596;-86
2023/06/23 07:04:19;;;;;;;9.90;5.53;;;18.30;99.90;;;;;;4995385;28;20907;-87
2023/06/23 07:06:52;;;;;;;6.15;5.20;;;18.30;99.90;;;;;;5015624;28;20229;-86
2023/06/23 07:09:20;;;;;;;8.13;5.55;;;18.30;99.90;;;;;;4977503;28;20206;-86
2023/06/23 07:11:48;;;;;;;8.10;5.13;;;18.30;99.90;;;;;;5016077;28;20205;-87
2023/06/23 07:14:15;;;;;;;6.75;4.97;;;18.30;99.90;;;;;;5010488;28;21395;-86
2023/06/23 07:16:42;;;;;;;5.85;4.78;;;19.40;99.90;;;;;;5003026;23;20749;-69
2023/06/23 07:19:09;;;;;;;6.50;5.32;;;18.30;99.90;;;;;;4995532;28;20336;-69
2023/06/23 07:21:36;;;;;;;7.00;4.97;;;18.40;99.90;;;;;;4995181;28;20206;-69
2023/06/23 07:24:02;;;;;;;9.20;4.88;;;18.40;99.90;;;;;;5677860;23;20224;-68
2023/06/23 07:26:31;;;;;;;10.13;4.85;;;18.40;99.90;;;;;;4927092;28;20230;-70
2023/06/23 07:28:57;;;;;;;9.80;5.18;;;18.40;99.90;;;;;;5012144;28;20316;-70
2023/06/23 07:31:25;;;;;;;8.50;5.45;;;18.40;99.90;;;;;;4971902;28;20674;-70
2023/06/23 07:33:52;;;;;;;7.47;5.00;;;18.40;99.90;;;;;;4966224;28;20790;-69
2023/06/23 07:36:19;;;;;;;5.22;4.65;;;18.40;99.90;;;;;;5004500;28;20757;-70
2023/06/23 07:38:46;;;;;;;7.38;5.03;;;18.40;99.90;;;;;;4984412;28;20206;-70
2023/06/23 07:41:13;;;;;;;7.18;5.25;;;18.40;99.90;;;;;;4997922;28;20222;-70
2023/06/23 07:43:43;;;;;;;6.57;4.72;;;18.40;99.90;;;;;;5005566;28;20212;-69
2023/06/23 07:46:10;;;;;;;6.78;5.05;;;18.40;99.90;;;;;;4982819;28;20226;-69
2023/06/23 07:48:37;;;;;;;6.70;5.20;;;18.40;99.90;;;;;;4985322;28;20217;-70
2023/06/23 07:51:04;;;;;;;5.78;4.95;;;18.40;99.90;;;;;;4996827;28;20206;-69
2023/06/23 07:53:30;;;;;;;9.10;5.43;;;18.40;99.90;;;;;;4965435;28;20222;-70
2023/06/23 07:55:57;;;;;;;5.72;5.10;;;18.50;99.90;;;;;;4997051;28;20211;-70
2023/06/23 07:58:24;;;;;;;8.00;5.43;;;18.60;99.90;;;;;;4989349;28;20202;-70
2023/06/23 08:00:53;;;;;;;9.75;6.40;;;18.80;99.90;;;;;;4994585;28;20217;-69
2023/06/23 08:03:20;;;;;;;8.57;5.75;;;18.80;99.90;;;;;;4963515;28;20221;-70
2023/06/23 08:05:46;;;;;;;10.93;6.80;;;18.70;99.90;;;;;;4982329;28;20205;-69
2023/06/23 08:08:13;;;;;;;9.02;5.97;;;18.90;99.90;;;;;;5004251;28;20221;-69
2023/06/23 08:10:40;;;;;;;13.20;5.82;;;18.80;99.90;;;;;;4982109;28;20202;-70
2023/06/23 08:13:07;;;;;;;9.52;5.97;;;18.80;99.90;;;;;;4992474;28;20202;-70
2023/06/23 08:15:34;;;;;;;9.07;6.05;;;18.00;99.90;;;;;;4977480;28;22906;-70
2023/06/23 08:18:02;;;;;;;6.57;5.88;;;18.80;99.90;;;;;;4977526;28;20221;-70
2023/06/23 08:20:29;;;;;;;8.65;5.60;;;18.90;99.90;;;;;;4970824;28;21843;-70
2023/06/23 08:22:56;;;;;;;9.57;5.63;;;18.80;99.90;;;;;;5006394;28;20202;-70
2023/06/23 08:25:23;;;;;;;11.45;5.97;;;18.80;99.90;;;;;;4991216;28;20234;-70
2023/06/23 08:27:50;;;;;;;10.07;6.57;;;18.90;99.90;;;;;;4992282;28;20240;-70
2023/06/23 08:30:25;;;;;;;9.57;6.72;;;18.90;99.90;;;;;;4991217;28;20224;-70
2023/06/23 08:32:51;;;;;;;8.02;5.68;;;18.90;99.90;;;;;;4961222;28;20213;-70
2023/06/23 08:35:20;;;;;;;8.52;6.32;;;19.00;99.90;;;;;;4983797;28;20210;-70
2023/06/23 08:37:46;;;;;;;8.30;5.82;;;18.90;99.90;;;;;;4992055;28;20225;-70
2023/06/23 08:40:14;;;;;;;9.43;5.40;;;18.90;99.90;;;;;;4993574;28;20214;-70
2023/06/23 08:42:41;;;;;;;12.02;6.90;;;19.00;99.90;;;;;;4980892;28;20205;-70
2023/06/23 08:45:10;;;;;;;8.40;5.97;;;19.00;99.90;;;;;;4980511;28;20212;-69
2023/06/23 08:47:46;;;;;;;9.10;5.93;;;19.00;99.90;;;;;;4964998;28;20222;-70
2023/06/23 08:50:14;;;;;;;7.85;5.63;;;19.00;99.90;;;;;;4987478;28;20205;-69
2023/06/23 08:52:43;;;;;;;8.40;5.80;;;19.00;99.90;;;;;;4993823;28;20207;-70
2023/06/23 08:55:10;;;;;;;6.70;5.88;;;19.10;99.90;;;;;;5012538;28;20545;-69
2023/06/23 08:57:38;;;;;;;10.00;5.85;;;18.60;99.90;;;;;;4984450;28;20208;-70
2023/06/23 09:00:07;;;;;;;11.23;6.10;;;19.10;99.90;;;;;;4993483;28;20202;-69
2023/06/23 09:02:34;;;;;;;12.40;5.57;;;19.10;99.90;;;;;;4990579;28;21046;-69
2023/06/23 09:05:01;;;;;;;8.30;5.50;;;19.10;99.90;;;;;;4962185;28;20972;-69
2023/06/23 09:07:28;;;;;;;7.95;5.63;;;19.30;99.90;;;;;;5006066;28;20835;-70
2023/06/23 09:09:56;;;;;;;9.40;5.60;;;19.30;99.90;;;;;;5001992;28;20232;-70
2023/06/23 09:12:24;;;;;;;6.00;5.40;;;19.30;99.90;;;;;;4996525;28;20202;-69
2023/06/23 09:14:51;;;;;;;9.15;5.88;;;19.20;99.90;;;;;;4984014;28;20202;-70
2023/06/23 09:17:18;;;;;;;7.93;5.97;;;19.40;99.90;;;;;;5010181;28;20200;-70
2023/06/23 09:19:49;;;;;;;11.95;6.13;;;19.50;99.90;;;;;;4960228;28;20202;-70
2023/06/23 09:22:18;;;;;;;8.32;5.68;;;19.50;99.90;;;;;;4987613;28;20206;-70
2023/06/23 09:24:46;;;;;;;8.25;5.35;;;19.60;99.90;;;;;;4990244;28;20259;-70
2023/06/23 09:27:15;;;;;;;9.65;6.07;;;19.60;99.90;;;;;;4989692;28;20256;-69
2023/06/23 09:29:43;;;;;;;5.97;5.38;;;19.80;99.90;;;;;;4989756;28;20773;-70
2023/06/23 09:32:09;;;;;;;9.98;6.03;;;19.80;99.90;;;;;;5007106;28;20203;-69
2023/06/23 09:34:38;;;;;;;13.38;6.07;;;19.60;99.90;;;;;;4975286;28;21253;-70
2023/06/23 09:37:09;;;;;;;8.77;6.07;;;19.70;99.90;;;;;;4982164;28;20230;-69
2023/06/23 09:39:37;;;;;;;9.32;6.43;;;19.80;99.90;;;;;;5000007;28;20204;-70
2023/06/23 09:42:06;;;;;;;8.70;6.05;;;19.80;99.90;;;;;;4978211;28;20233;-70
2023/06/23 09:44:36;;;;;;;10.80;5.57;;;19.90;99.90;;;;;;5004861;28;20213;-69
2023/06/23 09:47:04;;;;;;;6.70;5.38;;;20.10;99.90;;;;;;4991313;28;21011;-70
2023/06/23 09:49:39;;;;;;;7.55;5.38;;;20.30;99.90;;;;;;4999408;28;20222;-70
2023/06/23 09:52:07;;;;;;;7.22;5.38;;;20.20;99.90;;;;;;4975087;28;20717;-69
2023/06/23 09:54:36;;;;;;;10.45;5.32;;;20.10;99.90;;;;;;5002736;28;20297;-69
2023/06/23 09:57:07;;;;;;;9.65;5.35;;;19.90;99.90;;;;;;4980014;28;20207;-69
2023/06/23 09:59:38;;;;;;;8.20;5.53;;;20.30;99.90;;;;;;5008520;28;20553;-69
2023/06/23 10:02:07;;;;;;;10.73;4.85;;;20.30;99.90;;;;;;4986432;28;20241;-69
2023/06/23 10:04:33;;;;;;;7.22;5.53;;;20.30;99.90;;;;;;5008461;28;20209;-69
2023/06/23 10:07:18;;;;;;;6.45;5.60;;;20.20;99.90;;;;;;4946757;28;20229;-70
2023/06/23 10:09:50;;;;;;;13.82;5.88;;;20.40;99.90;;;;;;4998281;28;20319;-69
2023/06/23 10:12:19;;;;;;;7.75;5.97;;;20.40;99.90;;;;;;4989097;28;20576;-69
2023/06/23 10:14:48;;;;;;;10.70;6.00;;;20.30;99.90;;;;;;4994465;28;21042;-69
2023/06/23 10:17:15;;;;;;;10.02;6.07;;;20.60;99.90;;;;;;4991443;28;20206;-69
2023/06/23 10:19:43;;;;;;;7.70;6.30;;;20.60;99.90;;;;;;5014125;28;20194;-69
2023/06/23 10:22:14;;;;;;;6.70;5.55;;;19.80;99.90;;;;;;4946471;28;24187;-70
2023/06/23 10:24:42;;;;;;;8.60;5.68;;;20.70;99.90;;;;;;5008125;28;20238;-70
2023/06/23 10:27:11;;;;;;;11.65;5.88;;;20.70;99.90;;;;;;4992742;28;20724;-70
2023/06/23 10:29:41;;;;;;;6.75;5.95;;;20.70;99.90;;;;;;4983104;28;20218;-70
2023/06/23 10:32:11;;;;;;;10.35;6.97;;;20.60;99.90;;;;;;4995571;28;21437;-70
2023/06/23 10:34:41;;;;;;;7.45;6.18;;;20.70;99.90;;;;;;5007351;28;20213;-69
2023/06/23 10:37:11;;;;;;;8.50;6.05;;;20.90;99.90;;;;;;4967944;28;20241;-69
2023/06/23 10:39:40;;;;;;;10.00;6.65;;;21.00;99.90;;;;;;4999951;28;20705;-69
2023/06/23 10:42:11;;;;;;;7.78;5.82;;;21.20;99.90;;;;;;4992045;28;20226;-70
2023/06/23 10:44:39;;;;;;;9.38;6.10;;;21.20;99.90;;;;;;4992012;28;20232;-69
2023/06/23 10:47:06;;;;;;;9.18;6.35;;;21.30;99.90;;;;;;4988635;28;20233;-69
2023/06/23 10:49:35;;;;;;;6.93;5.80;;;21.40;99.90;;;;;;5009947;28;20198;-69
2023/06/23 10:52:03;;;;;;;10.77;6.40;;;21.10;99.90;;;;;;4966530;28;20202;-70
2023/06/23 10:54:32;;;;;;;11.95;6.32;;;21.10;99.90;;;;;;5015225;28;20228;-69
2023/06/23 10:56:58;;;;;;;8.95;5.25;;;20.90;99.90;;;;;;4995729;28;20209;-70
2023/06/23 10:59:28;;;;;;;7.22;5.53;;;21.00;99.90;;;;;;4994326;28;21046;-69
2023/06/23 11:02:19;;;;;;;9.13;5.97;;;21.10;99.90;;;;;;5000879;28;20198;-69
2023/06/23 11:04:55;;;;;;;10.00;5.97;;;20.60;99.90;;;;;;4959535;28;20233;-69
2023/06/23 11:07:22;;;;;;;8.98;5.93;;;21.00;99.90;;;;;;4981540;28;20221;-69
2023/06/23 11:09:54;;;;;;;10.43;5.60;;;21.20;99.90;;;;;;4953420;28;20222;-69
2023/06/23 11:12:31;;;;;;;7.65;5.30;;;21.00;99.90;;;;;;4998321;28;20222;-68
2023/06/23 11:15:12;;;;;;;10.27;6.10;;;21.10;99.90;;;;;;4951684;28;20221;-69
2023/06/23 11:17:47;;;;;;;9.68;5.95;;;21.10;99.90;;;;;;5000254;28;20226;-69
2023/06/23 11:20:29;;;;;;;10.93;6.05;;;21.20;99.90;;;;;;4994694;28;20853;-68
2023/06/23 11:22:59;;;;;;;9.20;5.50;;;21.40;99.90;;;;;;4962520;28;20276;-69
2023/06/23 11:25:29;;;;;;;7.38;6.03;;;21.40;99.90;;;;;;4984463;28;20268;-69
2023/06/23 11:28:24;;;;;;;7.38;5.63;;;21.30;99.90;;;;;;4994997;28;20226;-69
2023/06/23 11:30:55;;;;;;;11.27;5.55;;;21.30;99.90;;;;;;4996752;28;20206;-69
2023/06/23 11:33:29;;;;;;;7.38;5.93;;;21.40;99.90;;;;;;4985028;28;20289;-68
2023/06/23 11:35:59;;;;;;;7.00;5.35;;;21.30;99.90;;;;;;4993727;28;20199;-69
2023/06/23 11:38:27;;;;;;;8.85;4.97;;;21.40;99.90;;;;;;4982462;28;20222;-69
2023/06/23 11:40:56;;;;;;;8.23;5.30;;;21.30;99.90;;;;;;4956973;28;20215;-68
2023/06/23 11:43:23;;;;;;;7.45;4.90;;;21.30;99.90;;;;;;5000887;28;20230;-68
2023/06/23 11:45:55;;;;;;;6.97;4.60;;;21.10;99.90;;;;;;4983319;28;20678;-68
2023/06/23 11:48:22;;;;;;;8.23;5.32;;;21.20;99.90;;;;;;5000932;28;20230;-68
2023/06/23 11:50:49;;;;;;;9.07;5.18;;;21.00;99.90;;;;;;4988304;28;20769;-69
2023/06/23 11:53:17;;;;;;;8.48;5.50;;;20.40;99.90;;;;;;4981593;28;21729;-69
2023/06/23 11:55:44;;;;;;;10.70;5.60;;;21.10;99.90;;;;;;4963370;28;20202;-68
2023/06/23 11:58:12;;;;;;;7.97;5.13;;;21.20;99.90;;;;;;4988463;28;20206;-69
2023/06/23 12:00:38;;;;;;;5.80;4.85;;;21.20;99.90;;;;;;4993283;28;20229;-68
2023/06/23 12:03:05;;;;;;;6.03;4.15;;;21.20;99.90;;;;;;4991938;28;20202;-68
2023/06/23 12:05:36;;;;;;;7.78;5.38;;;21.20;99.90;;;;;;4991303;28;20683;-68
2023/06/23 12:08:04;;;;;;;8.38;5.47;;;;;;;;;;4990998;28;20718;-68
2023/06/23 12:10:36;;;;;;;8.73;5.82;;;21.50;99.90;;;;;;4966212;28;20225;-68
2023/06/23 12:13:03;;;;;;;6.38;5.28;;;21.70;99.90;;;;;;4991212;28;20206;-68
2023/06/23 12:15:29;;;;;;;8.32;4.80;;;21.70;99.90;;;;;;4992213;28;20226;-67
2023/06/23 12:17:57;;;;;;;8.70;4.82;;;21.60;99.90;;;;;;4990396;28;20221;-68
2023/06/23 12:20:24;;;;;;;7.13;4.80;;;22.00;99.90;;;;;;4989391;28;20210;-68
2023/06/23 12:22:51;;;;;;;6.63;4.63;;;22.20;99.90;;;;;;4983966;28;20777;-68
2023/06/23 12:25:19;;;;;;;5.00;3.67;;;22.20;99.90;;;;;;4961870;28;20861;-68
2023/06/23 12:27:56;;;;;;;4.22;3.70;;;22.10;99.90;;;;;;4978942;28;20236;-68
2023/06/23 12:30:23;;;;;;;6.82;4.88;;;21.10;99.90;;;;;;4996158;28;20209;-68
2023/06/23 12:32:54;;;;;;;6.72;3.83;;;22.10;99.90;;;;;;4997258;28;20202;-68
2023/06/23 12:35:22;;;;;;;5.78;3.67;;;22.10;99.90;;;;;;4984267;28;20213;-68
2023/06/23 12:37:50;;;;;;;6.63;4.45;;;22.00;99.90;;;;;;5005058;28;20245;-68
2023/06/23 12:40:33;;;;;;;4.97;4.05;;;22.10;99.90;;;;;;4979827;28;20202;-67
2023/06/23 12:43:02;;;;;;;4.28;3.85;;;22.00;99.90;;;;;;4985815;28;20206;-67
2023/06/23 12:45:29;;;;;;;5.25;4.32;;;;;;;;;;4993829;28;20203;-67
2023/06/23 12:47:56;;;;;;;9.55;4.50;;;21.90;99.90;;;;;;4998491;28;20232;-67
2023/06/23 12:50:29;;;;;;;5.25;3.83;;;22.00;99.90;;;;;;4985026;28;20202;-67
2023/06/23 12:52:56;;;;;;;4.80;3.88;;;22.00;99.90;;;;;;4978827;28;20860;-67
2023/06/23 12:55:23;;;;;;;5.07;3.83;;;;;;;;;;4959018;28;20230;-67
2023/06/23 12:57:51;;;;;;;5.63;4.00;;;22.00;99.90;;;;;;5000895;28;20254;-67
2023/06/23 13:00:21;;;;;;;5.63;4.22;;;22.00;99.90;;;;;;4990219;28;20203;-68